createdAt,value
2022-11-13T00:01:29.752Z,7.00
2022-11-13T00:04:15.174Z,7.10
2022-11-13T00:07:00.796Z,7.00
2022-11-13T00:09:46.312Z,6.90
2022-11-13T00:12:32.603Z,6.80
2022-11-13T00:15:18.110Z,6.80
2022-11-13T00:18:03.893Z,6.80
2022-11-13T00:20:49.235Z,6.70
2022-11-13T00:23:36.502Z,6.70
2022-11-13T00:26:25.711Z,6.70
2022-11-13T00:29:11.289Z,6.80
2022-11-13T00:31:56.685Z,6.90
2022-11-13T00:34:47.671Z,6.80
2022-11-13T00:37:33.209Z,6.70
2022-11-13T00:40:18.800Z,6.70
2022-11-13T00:43:04.342Z,6.70
2022-11-13T00:45:50.251Z,6.60
2022-11-13T00:48:36.745Z,6.90
2022-11-13T00:51:22.182Z,6.90
2022-11-13T00:54:07.367Z,6.90
2022-11-13T00:56:52.886Z,7.00
2022-11-13T00:59:38.343Z,7.00
2022-11-13T01:02:23.801Z,6.90
2022-11-13T01:05:09.608Z,6.80
2022-11-13T01:07:55.264Z,6.70
2022-11-13T01:10:53.075Z,6.70
2022-11-13T01:13:41.121Z,6.60
2022-11-13T01:16:28.292Z,6.60
2022-11-13T01:19:14.617Z,6.60
2022-11-13T01:22:00.271Z,6.60
2022-11-13T01:24:45.717Z,6.60
2022-11-13T01:27:31.448Z,6.50
2022-11-13T01:30:17.251Z,6.40
2022-11-13T01:33:03.062Z,6.40
2022-11-13T01:35:48.634Z,6.40
2022-11-13T01:38:36.949Z,6.40
2022-11-13T01:41:28.433Z,6.40
2022-11-13T01:44:18.206Z,6.30
2022-11-13T01:47:04.713Z,6.30
2022-11-13T01:49:57.512Z,6.20
2022-11-13T01:52:43.062Z,6.10
2022-11-13T01:55:29.304Z,6.10
2022-11-13T01:58:16.265Z,6.10
2022-11-13T02:01:01.724Z,6.10
2022-11-13T02:03:46.875Z,6.10
2022-11-13T02:06:59.359Z,6.10
2022-11-13T02:09:49.525Z,6.00
2022-11-13T02:12:42.751Z,6.00
2022-11-13T02:15:33.561Z,6.10
2022-11-13T02:18:23.270Z,6.10
2022-11-13T02:21:26.675Z,6.00
2022-11-13T02:24:33.002Z,6.00
2022-11-13T02:27:34.717Z,6.00
2022-11-13T02:30:27.276Z,6.00
2022-11-13T02:33:30.197Z,6.00
2022-11-13T02:36:16.650Z,6.00
2022-11-13T02:39:07.709Z,5.90
2022-11-13T02:41:53.019Z,5.90
2022-11-13T02:44:38.127Z,5.80
2022-11-13T02:47:23.747Z,5.90
2022-11-13T02:50:10.829Z,5.80
2022-11-13T02:52:56.092Z,5.70
2022-11-13T02:55:41.505Z,5.80
2022-11-13T02:58:27.379Z,5.70
2022-11-13T03:01:13.242Z,5.70
2022-11-13T03:03:58.764Z,5.70
2022-11-13T03:06:44.071Z,5.70
2022-11-13T03:09:29.499Z,5.70
2022-11-13T03:12:14.975Z,5.70
2022-11-13T03:15:00.288Z,5.60
2022-11-13T03:17:45.531Z,5.70
2022-11-13T03:20:32.099Z,5.60
2022-11-13T03:23:17.451Z,5.70
2022-11-13T03:26:09.776Z,5.70
2022-11-13T03:28:55.903Z,5.60
2022-11-13T03:31:41.269Z,5.60
2022-11-13T03:34:26.713Z,5.60
2022-11-13T03:37:12.247Z,5.60
2022-11-13T03:39:57.631Z,5.60
2022-11-13T03:42:43.059Z,5.60
2022-11-13T03:45:28.678Z,5.50
2022-11-13T03:48:16.428Z,5.60
2022-11-13T03:51:02.161Z,5.50
2022-11-13T03:53:47.959Z,5.60
2022-11-13T03:56:33.207Z,5.50
2022-11-13T03:59:18.723Z,5.50
2022-11-13T04:02:04.334Z,5.50
2022-11-13T04:04:49.527Z,5.50
2022-11-13T04:07:35.155Z,5.50
2022-11-13T04:10:21.120Z,5.50
2022-11-13T04:13:06.480Z,5.50
2022-11-13T04:15:52.023Z,5.50
2022-11-13T04:18:37.534Z,5.60
2022-11-13T04:21:22.926Z,5.50
2022-11-13T04:24:08.548Z,5.60
2022-11-13T04:26:54.651Z,5.60
2022-11-13T04:29:39.901Z,5.60
2022-11-13T04:32:25.411Z,5.60
2022-11-13T04:35:11.845Z,5.60
2022-11-13T04:37:57.022Z,5.60
2022-11-13T04:40:43.241Z,5.70
2022-11-13T04:43:28.648Z,5.70
2022-11-13T04:46:14.117Z,5.70
2022-11-13T04:48:59.730Z,5.70
2022-11-13T04:51:45.083Z,5.60
2022-11-13T04:54:30.817Z,5.60
2022-11-13T04:57:16.382Z,5.50
2022-11-13T05:00:03.259Z,5.40
2022-11-13T05:02:49.098Z,5.40
2022-11-13T05:05:34.505Z,5.40
2022-11-13T05:08:19.630Z,5.40
2022-11-13T05:11:05.550Z,5.40
2022-11-13T05:13:50.890Z,5.30
2022-11-13T05:16:36.596Z,5.30
2022-11-13T05:19:21.828Z,5.30
2022-11-13T05:22:07.590Z,5.30
2022-11-13T05:24:53.023Z,5.20
2022-11-13T05:27:38.521Z,5.20
2022-11-13T05:30:25.113Z,5.20
2022-11-13T05:33:10.603Z,5.20
2022-11-13T05:35:56.075Z,5.20
2022-11-13T05:38:42.560Z,5.10
2022-11-13T05:41:28.550Z,5.20
2022-11-13T05:44:14.086Z,5.10
2022-11-13T05:46:59.443Z,5.10
2022-11-13T05:49:45.093Z,5.20
2022-11-13T05:52:30.298Z,5.10
2022-11-13T05:55:15.899Z,5.10
2022-11-13T05:58:01.182Z,5.10
2022-11-13T06:00:46.793Z,5.10
2022-11-13T06:03:33.597Z,5.10
2022-11-13T06:06:22.694Z,5.10
2022-11-13T06:09:08.034Z,5.10
2022-11-13T06:11:53.297Z,5.10
2022-11-13T06:14:38.691Z,5.10
2022-11-13T06:17:24.288Z,5.00
2022-11-13T06:20:10.222Z,5.00
2022-11-13T06:22:55.354Z,5.00
2022-11-13T06:25:40.940Z,4.90
2022-11-13T06:28:26.677Z,4.90
2022-11-13T06:31:28.745Z,4.80
2022-11-13T06:34:14.498Z,4.80
2022-11-13T06:37:01.656Z,4.90
2022-11-13T06:39:47.437Z,4.80
2022-11-13T06:42:32.850Z,4.80
2022-11-13T06:45:18.298Z,4.80
2022-11-13T06:48:04.078Z,4.70
2022-11-13T06:50:50.640Z,4.70
2022-11-13T06:53:36.263Z,4.60
2022-11-13T06:56:22.419Z,4.60
2022-11-13T06:59:08.795Z,4.60
2022-11-13T07:01:53.985Z,4.60
2022-11-13T07:04:39.619Z,4.50
2022-11-13T07:07:25.117Z,4.50
2022-11-13T07:10:10.736Z,4.50
2022-11-13T07:13:00.165Z,4.60
2022-11-13T07:15:45.639Z,4.60
2022-11-13T07:18:32.183Z,4.60
2022-11-13T07:21:17.927Z,4.60
2022-11-13T07:24:03.377Z,4.60
2022-11-13T07:26:48.755Z,4.60
2022-11-13T07:29:34.067Z,4.60
2022-11-13T07:32:19.606Z,4.70
2022-11-13T07:35:05.695Z,4.70
2022-11-13T07:37:56.324Z,4.70
2022-11-13T07:40:41.794Z,4.80
2022-11-13T07:43:27.633Z,4.90
2022-11-13T07:46:13.091Z,5.00
2022-11-13T07:48:58.718Z,5.00
2022-11-13T07:51:44.106Z,5.00
2022-11-13T07:54:29.735Z,5.10
2022-11-13T07:57:15.544Z,5.10
2022-11-13T08:00:00.772Z,5.20
2022-11-13T08:02:47.760Z,5.40
2022-11-13T08:05:33.460Z,5.50
2022-11-13T08:08:19.017Z,5.70
2022-11-13T08:11:08.788Z,5.80
2022-11-13T08:13:54.118Z,5.80
2022-11-13T08:16:39.475Z,6.10
2022-11-13T08:19:24.864Z,6.40
2022-11-13T08:22:10.038Z,6.60
2022-11-13T08:24:55.796Z,6.60
2022-11-13T08:27:41.151Z,6.60
2022-11-13T08:30:28.518Z,6.60
2022-11-13T08:33:14.125Z,6.60
2022-11-13T08:36:00.578Z,6.80
2022-11-13T08:38:48.315Z,7.00
2022-11-13T08:41:33.759Z,7.20
2022-11-13T08:44:19.482Z,7.20
2022-11-13T08:47:04.960Z,7.30
2022-11-13T08:49:50.114Z,7.40
2022-11-13T08:52:35.722Z,7.50
2022-11-13T08:55:21.818Z,7.60
2022-11-13T08:58:07.102Z,7.80
2022-11-13T09:00:52.479Z,7.90
2022-11-13T09:03:38.078Z,7.80
2022-11-13T09:06:23.114Z,8.10
2022-11-13T09:09:08.841Z,8.10
2022-11-13T09:11:53.975Z,8.30
2022-11-13T09:14:39.481Z,8.40
2022-11-13T09:17:24.939Z,8.30
2022-11-13T09:20:13.859Z,8.50
2022-11-13T09:23:02.615Z,8.70
2022-11-13T09:25:48.229Z,8.80
2022-11-13T09:28:33.859Z,9.10
2022-11-13T09:31:19.671Z,9.20
2022-11-13T09:34:04.975Z,9.30
2022-11-13T09:36:50.525Z,9.40
2022-11-13T09:39:36.037Z,9.60
2022-11-13T09:42:26.661Z,9.60
2022-11-13T09:45:15.487Z,9.80
2022-11-13T09:48:23.318Z,9.90
2022-11-13T09:51:32.782Z,10.00
2022-11-13T09:54:19.231Z,10.20
2022-11-13T09:57:35.051Z,10.10
2022-11-13T10:00:22.239Z,10.30
2022-11-13T10:04:01.571Z,10.40
2022-11-13T10:07:14.168Z,10.50
2022-11-13T10:10:19.980Z,10.80
2022-11-13T10:13:14.346Z,10.90
2022-11-13T10:16:54.706Z,11.00
2022-11-13T10:20:00.473Z,11.10
2022-11-13T10:22:58.858Z,11.20
2022-11-13T10:25:45.124Z,11.30
2022-11-13T10:31:47.255Z,11.40
2022-11-13T10:34:33.269Z,11.70
2022-11-13T10:38:08.880Z,11.80
2022-11-13T10:41:22.698Z,11.90
2022-11-13T10:44:34.264Z,12.10
2022-11-13T10:47:49.070Z,12.30
2022-11-13T10:50:31.439Z,12.40
2022-11-13T10:53:18.822Z,12.60
2022-11-13T10:56:30.194Z,12.60
2022-11-13T10:59:19.076Z,12.70
2022-11-13T11:02:26.340Z,12.70
2022-11-13T11:05:22.261Z,12.70
2022-11-13T11:08:14.491Z,12.90
2022-11-13T11:11:31.631Z,13.10
2022-11-13T11:14:43.938Z,13.30
2022-11-13T11:17:59.658Z,13.40
2022-11-13T11:21:12.591Z,13.50
2022-11-13T11:24:21.217Z,13.50
2022-11-13T11:27:22.890Z,13.50
2022-11-13T11:30:23.198Z,13.60
2022-11-13T11:33:37.737Z,13.60
2022-11-13T11:36:36.695Z,13.70
2022-11-13T11:39:43.561Z,13.80
2022-11-13T11:42:59.318Z,13.80
2022-11-13T11:45:47.416Z,13.80
2022-11-13T11:48:34.276Z,13.80
2022-11-13T11:51:31.006Z,13.80
2022-11-13T11:54:40.270Z,13.70
2022-11-13T11:58:15.809Z,13.70
2022-11-13T12:01:21.460Z,13.90
2022-11-13T12:04:26.587Z,14.00
2022-11-13T12:08:04.766Z,14.10
2022-11-13T12:11:19.750Z,14.10
2022-11-13T12:14:31.587Z,13.90
2022-11-13T12:18:02.837Z,14.20
2022-11-13T12:21:15.993Z,14.20
2022-11-13T12:24:05.667Z,14.40
2022-11-13T12:27:06.129Z,14.40
2022-11-13T12:30:25.238Z,14.40
2022-11-13T12:33:28.531Z,14.60
2022-11-13T12:36:14.767Z,14.70
2022-11-13T12:39:53.887Z,14.70
2022-11-13T12:43:29.746Z,14.70
2022-11-13T12:46:16.729Z,14.80
2022-11-13T12:49:02.573Z,14.90
2022-11-13T12:52:23.890Z,15.00
2022-11-13T12:55:31.279Z,14.90
2022-11-13T12:58:33.293Z,15.00
2022-11-13T13:01:21.062Z,15.00
2022-11-13T13:04:45.170Z,15.10
2022-11-13T13:08:04.755Z,15.00
2022-11-13T13:11:15.030Z,15.00
2022-11-13T13:14:00.523Z,15.10
2022-11-13T13:16:46.149Z,15.10
2022-11-13T13:19:33.443Z,15.20
2022-11-13T13:22:33.858Z,15.10
2022-11-13T13:25:29.809Z,15.20
2022-11-13T13:28:24.471Z,15.20
2022-11-13T13:31:12.865Z,15.20
2022-11-13T13:34:54.622Z,15.10
2022-11-13T13:38:02.478Z,15.20
2022-11-13T13:41:35.990Z,15.20
2022-11-13T13:44:32.767Z,15.20
2022-11-13T13:47:35.012Z,15.20
2022-11-13T13:50:30.426Z,15.20
2022-11-13T13:53:23.956Z,15.30
2022-11-13T13:56:12.722Z,15.30
2022-11-13T13:59:00.120Z,15.30
2022-11-13T14:02:01.825Z,15.30
2022-11-13T14:04:51.344Z,15.40
2022-11-13T14:07:38.047Z,15.40
2022-11-13T14:10:28.065Z,15.40
2022-11-13T14:13:22.643Z,15.30
2022-11-13T14:16:08.236Z,15.40
2022-11-13T14:19:04.859Z,15.40
2022-11-13T14:22:02.838Z,15.40
2022-11-13T14:25:00.363Z,15.40
2022-11-13T14:27:46.103Z,15.40
2022-11-13T14:30:34.890Z,15.30
2022-11-13T14:34:03.067Z,15.30
2022-11-13T14:40:04.943Z,15.30
2022-11-13T14:42:57.860Z,15.20
2022-11-13T14:46:01.270Z,15.20
2022-11-13T14:48:55.071Z,15.10
2022-11-13T14:51:41.303Z,15.00
2022-11-13T14:55:08.298Z,15.00
2022-11-13T14:57:50.534Z,14.90
2022-11-13T15:00:38.163Z,15.00
2022-11-13T15:03:24.963Z,14.90
2022-11-13T15:06:21.848Z,14.90
2022-11-13T15:09:14.743Z,14.80
2022-11-13T15:11:59.922Z,14.80
2022-11-13T15:14:45.537Z,14.70
2022-11-13T15:17:31.269Z,14.60
2022-11-13T15:20:25.999Z,14.50
2022-11-13T15:23:15.671Z,14.40
2022-11-13T15:26:01.012Z,14.20
2022-11-13T15:28:46.536Z,14.20
2022-11-13T15:31:44.686Z,14.20
2022-11-13T15:34:29.991Z,14.10
2022-11-13T15:37:17.301Z,13.90
2022-11-13T15:40:03.334Z,13.70
2022-11-13T15:42:48.734Z,13.70
2022-11-13T15:45:34.047Z,13.40
2022-11-13T15:48:19.662Z,13.00
2022-11-13T15:51:05.305Z,12.80
2022-11-13T15:54:00.790Z,12.50
2022-11-13T15:56:47.554Z,12.40
2022-11-13T15:59:33.113Z,12.30
2022-11-13T16:02:18.947Z,12.20
2022-11-13T16:05:04.674Z,12.10
2022-11-13T16:07:49.974Z,11.90
2022-11-13T16:10:35.642Z,11.70
2022-11-13T16:13:21.195Z,11.60
2022-11-13T16:16:23.690Z,11.30
2022-11-13T16:19:17.095Z,11.20
2022-11-13T16:22:02.348Z,11.10
2022-11-13T16:24:48.213Z,10.90
2022-11-13T16:27:36.351Z,10.80
2022-11-13T16:30:26.401Z,10.60
2022-11-13T16:33:12.836Z,10.70
2022-11-13T16:35:58.042Z,10.60
2022-11-13T16:38:43.629Z,10.50
2022-11-13T16:41:31.840Z,10.40
2022-11-13T16:44:16.974Z,10.30
2022-11-13T16:47:03.146Z,10.30
2022-11-13T16:49:49.140Z,10.10
2022-11-13T16:52:34.263Z,10.00
2022-11-13T16:55:19.919Z,9.90
2022-11-13T16:58:05.743Z,9.80
2022-11-13T17:00:51.383Z,9.90
2022-11-13T17:03:37.780Z,9.90
2022-11-13T17:06:30.270Z,9.90
2022-11-13T17:09:16.014Z,9.90
2022-11-13T17:12:01.238Z,9.80
2022-11-13T17:14:47.567Z,9.50
2022-11-13T17:17:32.847Z,9.40
2022-11-13T17:20:19.360Z,9.30
2022-11-13T17:23:05.110Z,9.30
2022-11-13T17:25:50.298Z,9.30
2022-11-13T17:28:36.365Z,9.20
2022-11-13T17:31:22.061Z,9.10
2022-11-13T17:34:07.836Z,9.00
2022-11-13T17:36:56.570Z,9.00
2022-11-13T17:39:41.652Z,9.00
2022-11-13T17:42:28.511Z,9.00
2022-11-13T17:45:13.767Z,9.00
2022-11-13T17:47:59.243Z,8.90
2022-11-13T17:50:45.413Z,8.90
2022-11-13T17:53:31.801Z,8.90
2022-11-13T17:56:19.975Z,8.80
2022-11-13T17:59:05.550Z,8.70
2022-11-13T18:01:50.681Z,8.70
2022-11-13T18:04:36.182Z,8.70
2022-11-13T18:07:21.811Z,8.70
2022-11-13T18:10:08.150Z,8.60
2022-11-13T18:12:53.631Z,8.60
2022-11-13T18:15:40.491Z,8.50
2022-11-13T18:18:25.926Z,8.40
2022-11-13T18:21:23.489Z,8.40
2022-11-13T18:24:17.005Z,8.40
2022-11-13T18:27:05.903Z,8.30
2022-11-13T18:29:51.216Z,8.30
2022-11-13T18:32:36.651Z,8.20
2022-11-13T18:35:22.219Z,8.10
2022-11-13T18:38:07.792Z,8.10
2022-11-13T18:41:05.393Z,8.00
2022-11-13T18:43:52.136Z,8.00
2022-11-13T18:46:39.063Z,7.90
2022-11-13T18:49:24.403Z,7.90
2022-11-13T18:52:09.982Z,7.70
2022-11-13T18:54:55.286Z,7.80
2022-11-13T18:57:40.842Z,7.80
2022-11-13T19:00:26.187Z,8.00
2022-11-13T19:03:11.644Z,7.80
2022-11-13T19:05:57.139Z,7.70
2022-11-13T19:08:44.108Z,7.60
2022-11-13T19:11:30.970Z,7.50
2022-11-13T19:14:18.864Z,7.50
2022-11-13T19:17:04.111Z,7.60
2022-11-13T19:19:49.591Z,7.50
2022-11-13T19:22:35.125Z,7.40
2022-11-13T19:25:20.693Z,7.40
2022-11-13T19:28:06.065Z,7.20
2022-11-13T19:30:54.610Z,7.10
2022-11-13T19:33:41.163Z,7.20
2022-11-13T19:36:29.258Z,7.10
2022-11-13T19:39:15.517Z,7.20
2022-11-13T19:42:01.069Z,7.20
2022-11-13T19:44:46.483Z,7.00
2022-11-13T19:47:32.047Z,7.00
2022-11-13T19:50:17.814Z,6.90
2022-11-13T19:53:03.232Z,6.90
2022-11-13T19:55:55.519Z,6.90
2022-11-13T19:58:44.114Z,6.80
2022-11-13T20:01:31.825Z,6.70
2022-11-13T20:04:17.756Z,6.80
2022-11-13T20:07:03.220Z,6.70
2022-11-13T20:09:48.705Z,6.70
2022-11-13T20:12:34.295Z,6.70
2022-11-13T20:15:19.967Z,6.70
2022-11-13T20:18:05.575Z,6.70
2022-11-13T20:20:54.742Z,6.60
2022-11-13T20:23:40.835Z,6.50
2022-11-13T20:26:28.264Z,6.50
2022-11-13T20:29:13.809Z,6.50
2022-11-13T20:32:00.416Z,6.40
2022-11-13T20:34:45.667Z,6.40
2022-11-13T20:37:31.078Z,6.40
2022-11-13T20:40:17.686Z,6.40
2022-11-13T20:43:03.142Z,6.30
2022-11-13T20:45:48.849Z,6.30
2022-11-13T20:48:34.387Z,6.20
2022-11-13T20:51:23.630Z,6.20
2022-11-13T20:54:09.238Z,6.20
2022-11-13T20:56:54.538Z,6.10
2022-11-13T20:59:40.074Z,6.20
2022-11-13T21:02:25.955Z,6.10
2022-11-13T21:05:11.129Z,6.10
2022-11-13T21:07:56.617Z,6.10
2022-11-13T21:10:41.815Z,6.00
2022-11-13T21:13:28.017Z,6.00
2022-11-13T21:16:13.370Z,5.90
2022-11-13T21:18:59.929Z,5.90
2022-11-13T21:21:45.390Z,5.90
2022-11-13T21:24:31.871Z,5.90
2022-11-13T21:27:17.445Z,5.90
2022-11-13T21:30:02.703Z,5.90
2022-11-13T21:32:48.298Z,5.90
2022-11-13T21:35:33.753Z,5.80
2022-11-13T21:38:19.210Z,5.80
2022-11-13T21:41:22.802Z,5.70
2022-11-13T21:44:10.607Z,5.70
2022-11-13T21:46:56.403Z,5.60
2022-11-13T21:49:42.478Z,5.60
2022-11-13T21:52:28.110Z,5.60
2022-11-13T21:55:13.440Z,5.60
2022-11-13T21:57:58.858Z,5.70
2022-11-13T22:00:44.448Z,5.70
2022-11-13T22:03:29.935Z,5.70
2022-11-13T22:06:18.298Z,5.60
2022-11-13T22:09:07.804Z,5.60
2022-11-13T22:11:53.352Z,5.60
2022-11-13T22:14:38.595Z,5.50
2022-11-13T22:17:24.227Z,5.40
2022-11-13T22:20:10.129Z,5.40
2022-11-13T22:22:55.344Z,5.40
2022-11-13T22:25:40.849Z,5.40
2022-11-13T22:28:26.524Z,5.40
2022-11-13T22:31:21.696Z,5.30
2022-11-13T22:34:07.230Z,5.30
2022-11-13T22:36:52.296Z,5.30
2022-11-13T22:39:37.845Z,5.30
2022-11-13T22:42:23.063Z,5.20
2022-11-13T22:45:22.884Z,5.20
2022-11-13T22:48:11.185Z,5.30
2022-11-13T22:50:56.962Z,5.20
2022-11-13T22:53:50.810Z,5.20
2022-11-13T22:56:38.472Z,5.20
2022-11-13T22:59:23.838Z,5.20
2022-11-13T23:02:09.384Z,5.20
2022-11-13T23:04:54.522Z,5.10
2022-11-13T23:07:40.042Z,5.10
2022-11-13T23:10:25.592Z,4.90
2022-11-13T23:13:10.906Z,5.10
2022-11-13T23:15:56.448Z,5.10
2022-11-13T23:18:42.466Z,5.10
2022-11-13T23:21:29.691Z,5.10
2022-11-13T23:24:15.070Z,5.00
2022-11-13T23:27:00.578Z,5.30
2022-11-13T23:29:50.104Z,5.50
2022-11-13T23:32:36.063Z,5.60
2022-11-13T23:35:21.486Z,5.80
2022-11-13T23:38:07.329Z,6.00
2022-11-13T23:40:58.181Z,6.00
2022-11-13T23:46:48.566Z,6.30
2022-11-13T23:49:34.076Z,6.40
2022-11-13T23:52:19.474Z,6.40
2022-11-13T23:55:05.632Z,6.50
2022-11-13T23:58:00.274Z,6.50
